CheckWX is a tool to help pilots better visualize weather data.  It is not intended as a substitute for an official pre-flight weather briefing.

18:21:58 UTC

KIMS METAR
Madison Municipal Airport
Madison, Indiana, USA
Current

26 mins ago

KIMS 201756Z AUTO 17009G14KT 159V239 10SM CLR 28/19 A3019 RMK AO1
Observed
Sep-20 @ 17:56 UTC
Wind
  • 170° at 9 KTS
  • Gusting to 14 KTS
Visibility
10 SM
Flight Rules
VFR
Cloud Levels
  • Clear skies
Temperature
28°C / 82°F
Dewpoint
19°C / 66°F
Heat Index
29°C / 84°F
Humidity
58%
Altimeter
30.19" Hg
Pressure
1022.32 hPa
Previous

44 mins ago

KIMS 201738Z AUTO 25007G14KT 10SM CLR 28/19 A3020 RMK AO1
Observed
Sep-20 @ 17:38 UTC
Wind
  • 250° at 7 KTS
  • Gusting to 14 KTS
Visibility
10 SM
Flight Rules
VFR
Cloud Levels
  • Clear skies
Temperature
28°C / 82°F
Dewpoint
19°C / 66°F
Heat Index
29°C / 84°F
Humidity
58%
Altimeter
30.2" Hg
Pressure
1022.72 hPa
Previous

1 hour ago

KIMS 201715Z AUTO 20009KT 149V279 10SM CLR 27/19 A3021 RMK AO1
Observed
Sep-20 @ 17:15 UTC
Wind
  • 200° at 9 KTS
Visibility
10 SM
Flight Rules
VFR
Cloud Levels
  • Clear skies
Temperature
27°C / 81°F
Dewpoint
19°C / 66°F
Heat Index
28°C / 83°F
Humidity
62%
Altimeter
30.21" Hg
Pressure
1023.02 hPa